• Join FlightAware (Why Join?)
  • Login
  • US Flag 
02:54PM EDT


 

Airport Tracker/Info


-or-


 

Live Flight TrackerFlight Track Log ✈ UPS1216 ✈ 30-Apr-2013 ✈ KRFD - KBWI

Flight Track Log - Related Links

Times and Time Zones

All times are in EDT time to prevent confusion due to time zone crossing. See the UPS1216 flight status page for this flight to view local times or setup timezone preferences in your user account.

Time Position Orientation Groundspeed Altitude Reporting Facility
EDT Latitude Longitude Course Direction KTS MPH feet Rate Location/Type
04:02AM 42.1860 -89.0910 181° South 145 167 1,600  Level FlightAware
04:02AM 42.1710 -89.0740 140° Southeast 187 215 2,700 2,100 Climbing FlightAware
04:03AM 42.1690 -89.0540 98° East 227 261 3,000 1,860 Climbing FlightAware
04:03AM 42.1720 -89.0100 85° East 257 296 4,100 2,160 Climbing FlightAware
04:04AM 42.1740 -88.9700 86° East 281 323 5,000 2,100 Climbing FlightAware
04:04AM 42.1760 -88.9410 85° East 304 350 5,500 2,760 Climbing FlightAware
04:04AM 42.1790 -88.8820 86° East 314 361 7,100 3,300 Climbing FlightAware
04:05AM 42.1800 -88.8630 86° East 315 362 7,700 3,420 Climbing FlightAware
04:05AM 42.1830 -88.8030 86° East 322 371 9,400 3,000 Climbing FlightAware
04:06AM 42.1860 -88.7210 87° East 345 397 11,200 2,220 Climbing FlightAware
04:06AM 42.1910 -88.6140 86° East 390 449 12,600 2,220 Climbing FlightAware
04:07AM 42.1960 -88.5160 86° East 401 461 14,400 2,820 Climbing FlightAware
04:08AM 42.2020 -88.4020 86° East 411 473 16,600 2,700 Climbing FlightAware
04:09AM 42.2060 -88.2990 87° East 420 483 18,300 2,460 Climbing FlightAware
04:09AM 42.2120 -88.1810 86° East 429 494 20,100 2,160 Climbing FlightAware
04:10AM 42.2170 -88.0700 86° East 443 510 21,400 1,860 Climbing FlightAware
04:11AM 42.2150 -87.9500 91° East 450 518 22,800 1,800 Climbing FlightAware
04:11AM 42.1850 -87.8450 111° Southeast 457 526 24,000 1,800 Climbing FlightAware
04:12AM 42.1430 -87.7260 115° Southeast 465 535 25,400 1,800 Climbing FlightAware
04:13AM 42.1050 -87.6190 116° Southeast 472 543 26,600 1,620 Climbing FlightAware
04:13AM 42.0680 -87.5150 116° Southeast 478 550 27,600 1,680 Climbing FlightAware
04:14AM 42.0240 -87.3900 115° Southeast 482 555 29,000 1,920 Climbing FlightAware
04:15AM 41.9870 -87.2870 116° Southeast 474 545 30,400 2,100 Climbing FlightAware
04:16AM 41.9480 -87.1790 116° Southeast 469 540 31,800 1,920 Climbing FlightAware
04:16AM 41.9060 -87.0610 116° Southeast 464 534 33,200 1,500 Climbing FlightAware
04:17AM 41.8680 -86.9560 116° Southeast 463 533 34,000 540 Climbing FlightAware
04:18AM 41.8250 -86.8390 116° Southeast 467 537 34,000 600 Level FlightAware
04:18AM 41.7870 -86.7340 116° Southeast 463 533 34,900 660 Climbing FlightAware
04:19AM 41.7450 -86.6190 116° Southeast 458 527 35,000 60 Climbing FlightAware
04:20AM 41.7080 -86.5200 117° Southeast 461 531 35,000  Level FlightAware
04:20AM 41.6750 -86.4300 116° Southeast 464 534 35,000  Level FlightAware
04:21AM 41.6250 -86.2950 116° Southeast 464 534 35,000  Level FlightAware
04:22AM 41.5870 -86.1930 116° Southeast 465 535 35,000  Level FlightAware
04:23AM 41.5480 -86.0820 115° Southeast 466 536 35,000  Level FlightAware
04:23AM 41.5160 -85.9680 111° Southeast 468 539 35,000  Level FlightAware
04:24AM 41.5086 -85.9456 111° Southeast 468 539 35,000  Level Chicago Center
04:25AM 41.4658 -85.7822 109° East 470 541 35,000  Level Chicago Center
04:26AM 41.4231 -85.6186 109° East 473 544 35,000  Level Chicago Center
04:27AM 41.3711 -85.4242 110° East 473 544 35,000  Level Chicago Center
04:28AM 41.3281 -85.2628 110° East 471 542 35,000  Level Chicago Center
04:29AM 41.2850 -85.1025 110° East 467 537 35,000  Level Chicago Center
04:30AM 41.2417 -84.9417 110° East 466 536 35,000  Level Chicago Center
04:31AM 41.1997 -84.7811 109° East 464 534 35,000  Level Chicago Center
04:32AM 41.1583 -84.6200 109° East 463 533 35,000  Level Chicago Center
04:33AM 41.1164 -84.4569 109° East 468 539 35,000  Level Chicago Center
04:34AM 41.0742 -84.2947 109° East 468 539 35,000  Level Chicago Center
04:35AM 41.0303 -84.1322 110° East 470 541 35,000  Level Chicago Center
04:35AM 41.0025 -84.0267 109° East 471 542 35,000  Level Indianapolis Center
04:36AM 40.9586 -83.8603 109° East 474 545 35,000  Level Indianapolis Center
04:37AM 40.9144 -83.6947 109° East 471 542 35,000  Level Indianapolis Center
04:38AM 40.8694 -83.5289 110° East 472 543 35,000  Level Indianapolis Center
04:39AM 40.8314 -83.3853 109° East 475 547 35,000  Level Indianapolis Center
04:40AM 40.7797 -83.1956 110° East 476 548 35,000  Level Indianapolis Center
04:41AM 40.7406 -83.0547 110° East 477 549 35,000  Level Indianapolis Center
04:42AM 40.6947 -82.8881 110° East 479 551 35,000  Level Indianapolis Center
04:43AM 40.6486 -82.7225 110° East 480 552 35,000  Level Indianapolis Center
04:44AM 40.6017 -82.5569 110° East 480 552 35,000  Level Indianapolis Center
04:45AM 40.5556 -82.3900 110° East 483 556 35,000  Level Indianapolis Center
04:46AM 40.5089 -82.2244 110° East 484 557 35,000  Level Indianapolis Center
04:47AM 40.4622 -82.0458 109° East 478 550 35,000  Level Cleveland Center
04:48AM 40.4225 -81.8758 107° East 485 558 35,000  Level Cleveland Center
04:49AM 40.3825 -81.7089 107° East 485 558 35,000  Level Cleveland Center
04:50AM 40.3444 -81.5392 106° East 485 558 35,000  Level Cleveland Center
04:51AM 40.3042 -81.3697 107° East 485 558 35,000  Level Cleveland Center
04:52AM 40.2656 -81.2061 107° East 480 552 35,000  Level Cleveland Center
04:53AM 40.2247 -81.0400 108° East 480 552 35,000  Level Cleveland Center
04:54AM 40.1856 -80.8711 107° East 480 552 35,000  Level Cleveland Center
04:55AM 40.1442 -80.7053 108° East 480 552 35,000  Level Cleveland Center
04:57AM 40.0525 -80.3578 109° East 477 549 35,000  Level Indianapolis Center
04:58AM 40.0111 -80.1925 108° East 478 550 35,000  Level Indianapolis Center
04:59AM 39.9808 -80.0619 107° East 482 555 35,000  Level Washington Center
05:00AM 39.9389 -79.8997 109° East 477 549 35,000  Level Washington Center
05:01AM 39.8986 -79.7375 108° East 472 543 35,000  Level Washington Center
05:02AM 39.8542 -79.5728 109° East 472 543 35,000 -1,080 Level Washington Center
05:03AM 39.8117 -79.4111 109° East 472 543 32,900 -2,160 Descending Washington Center
05:04AM 39.7706 -79.2522 109° East 472 543 30,700 -2,160 Descending Washington Center
05:05AM 39.7294 -79.0936 109° East 472 543 28,700 -2,040 Descending Washington Center
05:06AM 39.6900 -78.9433 109° East 456 525 26,700 -2,040 Descending Washington Center
05:07AM 39.6483 -78.7933 110° East 451 519 24,700 -2,040 Descending Washington Center
05:08AM 39.6103 -78.6542 110° East 427 491 22,600 -2,100 Descending Washington Center
05:09AM 39.5719 -78.5181 110° East 413 475 20,600 -2,040 Descending Washington Center
05:10AM 39.5333 -78.3844 111° Southeast 408 470 18,600 -2,040 Descending Washington Center
05:11AM 39.4989 -78.2542 109° East 390 449 16,600 -1,860 Descending Washington Center
05:12AM 39.4622 -78.1156 109° East 385 443 15,000 -1,140 Descending Washington Center
05:13AM 39.4292 -77.9936 109° East 370 426 14,400 -1,260 Descending Washington Center
05:14AM 39.4025 -77.8719 106° East 360 414 12,500 -1,680 Descending Washington Center
05:15AM 39.3775 -77.7583 106° East 345 397 11,100 -1,200 Descending Washington Center
05:16AM 39.3544 -77.6528 106° East 324 373 10,200 -1,200 Descending Washington Center
05:17AM 39.3333 -77.5667 108° East 292 336 9,000 -1,440 Descending Potomac TRACON
05:18AM 39.3167 -77.4667 102° East 284 327 7,700 -1,260 Descending Potomac TRACON
05:19AM 39.3000 -77.3833 104° East 275 316 6,500 -1,260 Descending Potomac TRACON
05:20AM 39.2667 -77.2833 113° Southeast 262 302 5,200 -900 Descending Potomac TRACON
05:21AM 39.2500 -77.2167 108° East 220 253 4,900 -900 Descending Potomac TRACON
05:22AM 39.2333 -77.1500 108° East 203 234 3,600 -1,200 Descending Potomac TRACON
05:23AM 39.2333 -77.0833 90° East 196 226 2,600 -600 Descending Potomac TRACON
05:24AM 39.2167 -77.0000 104° East 198 228 2,500 -60 Descending Potomac TRACON
05:25AM 39.2000 -76.9500 113° Southeast 174 200 2,500  Level Potomac TRACON
05:26AM 39.1833 -76.9000 113° Southeast 164 189 2,500  Level Potomac TRACON
05:27AM 39.1833 -76.8333 90° East 147 169 2,500 -420 Level Potomac TRACON
05:28AM 39.1833 -76.7833 90° East 143 165 1,700 -720 Descending Potomac TRACON
05:29AM 39.1833 -76.7500 90° East 108 124 1,100 -600 Descending Potomac TRACON
05:30AM 39.1833 -76.7000 90° East 112 129 500 -600 Descending Potomac TRACON
05:32AM 39.1667 -76.6667 142° Southeast  Level FlightAware Approximate
05:39AM 39.1754 -76.6683 142° Southeast  Level Estimated
05:40AM 39.1754 -76.6683 142° Southeast  Level Estimated
05:41AM 39.1754 -76.6683 142° Southeast  Level Estimated
05:42AM 39.1754 -76.6683 142° Southeast  Level Estimated